»·PEaware :: N313JD KOLM-KPDX

N313JD :: KOLM-KPDX

FLIGHT INFORMATION

Flight Status: Arrived
Operator: Privately registered:
United States
More flights under this callsign
Pilot: Jamyson D. (13674)
Aircraft: Unknown
(KODI)
More flights by this aircraft type
Origin: KOLM Olympia
United States
Destination: KPDX Portland Intl
United States
More flights between these airports :: More routes between these airports
Route: +YELM3 ALDER HELNS HELNS5
File this flight plan on PilotEdge
Remarks:
Altitude:
(Current/Filed)
18,000ft
Speed:
(Current/Filed)
0kts
Departed: 21-Dec-17 07:35 PM
Arrived: 21-Dec-17 08:26 PM
Distance/Time
Traveled:
84nm/0:51
Distance/Time
To Go:
Arrived

Flight Plot

Page will automatically refresh every two minutes.

Flight plan parsing failed; only flown route is shown


Map Options




Map Legend


Flown Route
Filed Route
Departure Airport
Arrival Airport
Navaid (VOR, NDB)
Fix

Horizontal Profiles

Position Reports

Time Latitude Longitude Heading Altitude Ground
Speed
21-Dec-17 19:28 46.975445 -122.899930 321 195ft 8kts
21-Dec-17 19:29 46.975887 -122.900752 279 195ft 0kts
21-Dec-17 19:30 46.975887 -122.900752 279 195ft 0kts
21-Dec-17 19:31 46.975887 -122.900752 279 195ft 0kts
21-Dec-17 19:32 46.975887 -122.900752 279 195ft 0kts
21-Dec-17 19:33 46.975887 -122.900752 279 195ft 0kts
21-Dec-17 19:34 46.975887 -122.900752 279 195ft 0kts
21-Dec-17 19:35 46.975887 -122.900752 279 195ft 0kts
21-Dec-17 19:36 46.975887 -122.900752 279 195ft 0kts
21-Dec-17 19:37 46.975887 -122.900752 279 195ft 0kts
21-Dec-17 19:38 46.975887 -122.900752 279 195ft 0kts
21-Dec-17 19:39 46.975884 -122.902714 176 197ft 0kts
21-Dec-17 19:40 46.975905 -122.902715 184 197ft 0kts
21-Dec-17 19:41 46.970292 -122.904742 196 327ft 94kts
21-Dec-17 19:42 46.955289 -122.873412 75 1774ft 148kts
21-Dec-17 19:43 46.965181 -122.813394 75 1868ft 137kts
21-Dec-17 19:44 46.973622 -122.759799 75 2781ft 142kts
21-Dec-17 19:45 46.981574 -122.702240 75 4182ft 145kts
21-Dec-17 19:46 46.987705 -122.647554 75 5598ft 139kts
21-Dec-17 19:47 46.968830 -122.605157 140 6960ft 156kts
21-Dec-17 19:48 46.936391 -122.565239 138 8389ft 164kts
21-Dec-17 19:49 46.901813 -122.520085 139 9873ft 176kts
21-Dec-17 19:50 46.869375 -122.477346 139 10213ft 180kts
21-Dec-17 19:51 46.835697 -122.432865 142 11554ft 182kts
21-Dec-17 19:52 46.792677 -122.409586 183 13008ft 173kts
21-Dec-17 19:53 46.750194 -122.401074 184 14338ft 174kts
21-Dec-17 19:54 46.699187 -122.391676 183 14981ft 205kts
21-Dec-17 19:55 46.648645 -122.381885 185 15686ft 176kts
21-Dec-17 19:56 46.600740 -122.373111 186 16988ft 185kts
21-Dec-17 19:57 46.546378 -122.363131 185 16977ft 197kts
21-Dec-17 19:58 46.492120 -122.353060 185 16965ft 196kts
21-Dec-17 19:59 46.446454 -122.344484 190 16981ft 170kts
21-Dec-17 20:00 46.396628 -122.335455 187 15927ft 184kts
21-Dec-17 20:01 46.347404 -122.326342 186 13959ft 178kts
21-Dec-17 20:02 46.301867 -122.317912 186 12773ft 165kts
21-Dec-17 20:03 46.255385 -122.312723 212 11789ft 161kts
21-Dec-17 20:04 46.218865 -122.331558 212 10905ft 156kts
21-Dec-17 20:05 46.181570 -122.351990 212 10358ft 140kts
21-Dec-17 20:06 46.146848 -122.371255 212 9994ft 128kts
21-Dec-17 20:07 46.116077 -122.388405 212 10002ft 128kts
21-Dec-17 20:08 46.081653 -122.407686 211 9995ft 141kts
21-Dec-17 20:09 46.045381 -122.427677 211 9999ft 139kts
21-Dec-17 20:10 46.009127 -122.447687 211 9391ft 139kts
21-Dec-17 20:11 45.973936 -122.467150 209 7892ft 137kts
21-Dec-17 20:12 45.940995 -122.485358 208 6500ft 140kts
21-Dec-17 20:13 45.905375 -122.505036 206 5040ft 143kts
21-Dec-17 20:14 45.877079 -122.520577 205 4004ft 117kts
21-Dec-17 20:15 45.845713 -122.537926 204 4011ft 133kts
21-Dec-17 20:16 45.811535 -122.559753 211 4008ft 137kts
21-Dec-17 20:17 45.779037 -122.587481 217 4008ft 138kts
21-Dec-17 20:18 45.755409 -122.624851 289 4006ft 130kts
21-Dec-17 20:19 45.767871 -122.667935 295 4007ft 103kts
21-Dec-17 20:20 45.781998 -122.714775 295 3235ft 138kts
21-Dec-17 20:21 45.796269 -122.760543 295 2990ft 115kts
21-Dec-17 20:22 45.786871 -122.796284 215 2994ft 115kts
21-Dec-17 20:23 45.759729 -122.823522 215 3001ft 135kts
21-Dec-17 20:24 45.728035 -122.855615 215 2992ft 143kts
21-Dec-17 20:25 45.693517 -122.850087 146 2992ft 144kts
21-Dec-17 20:26 45.674291 -122.802671 115 2993ft 143kts
21-Dec-17 20:27 45.655543 -122.752345 117 2506ft 146kts
21-Dec-17 20:28 45.637661 -122.706072 118 1797ft 145kts
21-Dec-17 20:29 45.621172 -122.663517 118 1130ft 138kts
21-Dec-17 20:30 45.606987 -122.626979 118 562ft 137kts
21-Dec-17 20:31 45.590007 -122.583375 118 57ft 90kts
21-Dec-17 20:32 45.584200 -122.568887 157 34ft 14kts
21-Dec-17 20:33 45.586396 -122.577269 297 34ft 23kts
21-Dec-17 20:34 45.587248 -122.582338 111 33ft 2kts
21-Dec-17 20:35 45.586914 -122.582249 208 34ft 0kts
21-Dec-17 20:36 45.586915 -122.582249 208 34ft 0kts
21-Dec-17 20:37 45.586915 -122.582249 208 34ft 0kts

Navigation Log

Ident Type
Flight plan parsing failed, navigation log unavailable